sensor_id;sensor_type;location;lat;lon;timestamp;P1;durP1;ratioP1;P2;durP2;ratioP2
7511;SDS011;9999;48.780;9.146;2022-10-31T00:00:01;5.72;;;2.70;;
7511;SDS011;9999;48.780;9.146;2022-10-31T00:02:36;4.00;;;1.67;;
7511;SDS011;9999;48.780;9.146;2022-10-31T00:05:03;3.10;;;2.20;;
7511;SDS011;9999;48.780;9.146;2022-10-31T00:07:30;4.05;;;1.98;;
7511;SDS011;9999;48.780;9.146;2022-10-31T00:09:57;4.75;;;2.28;;
7511;SDS011;9999;48.780;9.146;2022-10-31T00:12:25;3.10;;;1.60;;
7511;SDS011;9999;48.780;9.146;2022-10-31T00:14:53;3.67;;;2.40;;
7511;SDS011;9999;48.780;9.146;2022-10-31T00:17:20;3.05;;;1.85;;
7511;SDS011;9999;48.780;9.146;2022-10-31T00:19:47;9.88;;;2.15;;
7511;SDS011;9999;48.780;9.146;2022-10-31T00:22:13;3.85;;;2.08;;
7511;SDS011;9999;48.780;9.146;2022-10-31T00:24:40;2.85;;;1.58;;
7511;SDS011;9999;48.780;9.146;2022-10-31T00:27:07;7.63;;;2.42;;
7511;SDS011;9999;48.780;9.146;2022-10-31T00:29:34;9.27;;;1.63;;
7511;SDS011;9999;48.780;9.146;2022-10-31T00:32:02;3.67;;;1.95;;
7511;SDS011;9999;48.780;9.146;2022-10-31T00:34:29;8.23;;;2.78;;
7511;SDS011;9999;48.780;9.146;2022-10-31T00:36:58;5.50;;;2.20;;
7511;SDS011;9999;48.780;9.146;2022-10-31T00:39:25;11.88;;;2.38;;
7511;SDS011;9999;48.780;9.146;2022-10-31T00:41:52;6.25;;;2.67;;
7511;SDS011;9999;48.780;9.146;2022-10-31T00:44:19;5.18;;;2.45;;
7511;SDS011;9999;48.780;9.146;2022-10-31T00:46:49;4.93;;;2.38;;
7511;SDS011;9999;48.780;9.146;2022-10-31T00:49:21;7.20;;;2.47;;
7511;SDS011;9999;48.780;9.146;2022-10-31T00:51:48;2.72;;;1.73;;
7511;SDS011;9999;48.780;9.146;2022-10-31T00:54:16;2.55;;;1.55;;
7511;SDS011;9999;48.780;9.146;2022-10-31T00:56:43;1.98;;;1.85;;
7511;SDS011;9999;48.780;9.146;2022-10-31T00:59:10;1.88;;;1.65;;
7511;SDS011;9999;48.780;9.146;2022-10-31T01:01:36;6.65;;;2.42;;
7511;SDS011;9999;48.780;9.146;2022-10-31T01:04:03;3.90;;;2.22;;
7511;SDS011;9999;48.780;9.146;2022-10-31T01:06:32;3.40;;;2.22;;
7511;SDS011;9999;48.780;9.146;2022-10-31T01:08:59;4.75;;;2.03;;
7511;SDS011;9999;48.780;9.146;2022-10-31T01:11:26;12.05;;;2.17;;
7511;SDS011;9999;48.780;9.146;2022-10-31T01:13:53;2.55;;;2.35;;
7511;SDS011;9999;48.780;9.146;2022-10-31T01:16:22;7.93;;;2.13;;
7511;SDS011;9999;48.780;9.146;2022-10-31T01:18:53;7.88;;;2.08;;
7511;SDS011;9999;48.780;9.146;2022-10-31T01:21:21;2.97;;;1.88;;
7511;SDS011;9999;48.780;9.146;2022-10-31T01:23:50;8.65;;;2.42;;
7511;SDS011;9999;48.780;9.146;2022-10-31T01:26:20;11.02;;;2.67;;
7511;SDS011;9999;48.780;9.146;2022-10-31T01:28:49;2.97;;;1.80;;
7511;SDS011;9999;48.780;9.146;2022-10-31T01:31:17;4.75;;;1.75;;
7511;SDS011;9999;48.780;9.146;2022-10-31T01:33:45;4.90;;;2.20;;
7511;SDS011;9999;48.780;9.146;2022-10-31T01:36:13;2.92;;;1.80;;
7511;SDS011;9999;48.780;9.146;2022-10-31T01:38:42;4.53;;;1.70;;
7511;SDS011;9999;48.780;9.146;2022-10-31T01:41:10;2.78;;;1.58;;
7511;SDS011;9999;48.780;9.146;2022-10-31T01:43:42;3.80;;;2.22;;
7511;SDS011;9999;48.780;9.146;2022-10-31T01:46:10;2.08;;;1.55;;
7511;SDS011;9999;48.780;9.146;2022-10-31T01:48:38;1.98;;;1.80;;
7511;SDS011;9999;48.780;9.146;2022-10-31T01:51:06;3.03;;;1.83;;
7511;SDS011;9999;48.780;9.146;2022-10-31T01:53:37;4.32;;;1.95;;
7511;SDS011;9999;48.780;9.146;2022-10-31T01:56:05;4.32;;;1.83;;
7511;SDS011;9999;48.780;9.146;2022-10-31T01:58:37;8.18;;;2.17;;
7511;SDS011;9999;48.780;9.146;2022-10-31T02:01:05;3.08;;;2.33;;
7511;SDS011;9999;48.780;9.146;2022-10-31T02:03:32;1.83;;;1.70;;
7511;SDS011;9999;48.780;9.146;2022-10-31T02:05:59;5.10;;;2.20;;
7511;SDS011;9999;48.780;9.146;2022-10-31T02:08:27;2.67;;;1.58;;
7511;SDS011;9999;48.780;9.146;2022-10-31T02:10:55;1.73;;;1.63;;
7511;SDS011;9999;48.780;9.146;2022-10-31T02:13:24;9.63;;;2.63;;
7511;SDS011;9999;48.780;9.146;2022-10-31T02:15:54;6.20;;;2.42;;
7511;SDS011;9999;48.780;9.146;2022-10-31T02:18:23;6.47;;;2.85;;
7511;SDS011;9999;48.780;9.146;2022-10-31T02:20:56;2.50;;;1.90;;
7511;SDS011;9999;48.780;9.146;2022-10-31T02:23:33;4.40;;;2.38;;
7511;SDS011;9999;48.780;9.146;2022-10-31T02:26:45;4.05;;;1.60;;
7511;SDS011;9999;48.780;9.146;2022-10-31T02:32:44;3.83;;;1.92;;
7511;SDS011;9999;48.780;9.146;2022-10-31T02:35:33;2.92;;;1.92;;
7511;SDS011;9999;48.780;9.146;2022-10-31T02:38:12;5.82;;;2.67;;
7511;SDS011;9999;48.780;9.146;2022-10-31T02:40:49;4.43;;;2.33;;
7511;SDS011;9999;48.780;9.146;2022-10-31T02:43:32;3.58;;;2.42;;
7511;SDS011;9999;48.780;9.146;2022-10-31T02:46:08;4.05;;;2.13;;
7511;SDS011;9999;48.780;9.146;2022-10-31T02:48:41;2.30;;;1.98;;
7511;SDS011;9999;48.780;9.146;2022-10-31T02:51:12;14.38;;;2.50;;
7511;SDS011;9999;48.780;9.146;2022-10-31T02:53:39;4.30;;;2.15;;
7511;SDS011;9999;48.780;9.146;2022-10-31T02:56:08;4.03;;;2.42;;
7511;SDS011;9999;48.780;9.146;2022-10-31T02:58:40;16.95;;;3.10;;
7511;SDS011;9999;48.780;9.146;2022-10-31T03:01:14;4.25;;;2.63;;
7511;SDS011;9999;48.780;9.146;2022-10-31T03:04:12;2.63;;;2.35;;
7511;SDS011;9999;48.780;9.146;2022-10-31T03:06:49;3.42;;;2.03;;
7511;SDS011;9999;48.780;9.146;2022-10-31T03:09:26;4.75;;;2.15;;
7511;SDS011;9999;48.780;9.146;2022-10-31T03:12:07;3.25;;;1.98;;
7511;SDS011;9999;48.780;9.146;2022-10-31T03:14:41;5.70;;;1.85;;
7511;SDS011;9999;48.780;9.146;2022-10-31T03:17:12;2.75;;;1.80;;
7511;SDS011;9999;48.780;9.146;2022-10-31T03:19:46;1.92;;;1.58;;
7511;SDS011;9999;48.780;9.146;2022-10-31T03:22:16;3.30;;;2.10;;
7511;SDS011;9999;48.780;9.146;2022-10-31T03:24:46;6.15;;;2.28;;
7511;SDS011;9999;48.780;9.146;2022-10-31T03:27:15;4.32;;;2.17;;
7511;SDS011;9999;48.780;9.146;2022-10-31T03:29:45;11.05;;;2.22;;
7511;SDS011;9999;48.780;9.146;2022-10-31T03:32:15;6.47;;;2.47;;
7511;SDS011;9999;48.780;9.146;2022-10-31T03:34:47;6.22;;;1.92;;
7511;SDS011;9999;48.780;9.146;2022-10-31T03:37:16;7.00;;;2.10;;
7511;SDS011;9999;48.780;9.146;2022-10-31T03:39:46;4.60;;;1.85;;
7511;SDS011;9999;48.780;9.146;2022-10-31T03:42:16;7.80;;;2.38;;
7511;SDS011;9999;48.780;9.146;2022-10-31T03:44:49;3.13;;;1.75;;
7511;SDS011;9999;48.780;9.146;2022-10-31T03:47:21;9.27;;;2.38;;
7511;SDS011;9999;48.780;9.146;2022-10-31T03:49:50;3.92;;;2.85;;
7511;SDS011;9999;48.780;9.146;2022-10-31T03:52:19;2.65;;;2.00;;
7511;SDS011;9999;48.780;9.146;2022-10-31T03:54:52;3.28;;;2.03;;
7511;SDS011;9999;48.780;9.146;2022-10-31T03:57:22;3.67;;;2.35;;
7511;SDS011;9999;48.780;9.146;2022-10-31T03:59:55;2.50;;;1.95;;
7511;SDS011;9999;48.780;9.146;2022-10-31T04:02:26;2.13;;;1.67;;
7511;SDS011;9999;48.780;9.146;2022-10-31T04:04:57;4.20;;;1.88;;
7511;SDS011;9999;48.780;9.146;2022-10-31T04:07:25;4.25;;;2.70;;
7511;SDS011;9999;48.780;9.146;2022-10-31T04:09:56;3.03;;;1.50;;
7511;SDS011;9999;48.780;9.146;2022-10-31T04:12:26;4.95;;;1.90;;
7511;SDS011;9999;48.780;9.146;2022-10-31T04:15:08;4.50;;;2.53;;
7511;SDS011;9999;48.780;9.146;2022-10-31T04:17:39;2.00;;;1.63;;
7511;SDS011;9999;48.780;9.146;2022-10-31T04:20:10;2.78;;;1.90;;
7511;SDS011;9999;48.780;9.146;2022-10-31T04:22:41;2.13;;;1.90;;
7511;SDS011;9999;48.780;9.146;2022-10-31T04:25:08;3.50;;;2.55;;
7511;SDS011;9999;48.780;9.146;2022-10-31T04:27:36;6.65;;;2.63;;
7511;SDS011;9999;48.780;9.146;2022-10-31T04:30:06;3.90;;;2.45;;
7511;SDS011;9999;48.780;9.146;2022-10-31T04:32:37;4.25;;;2.63;;
7511;SDS011;9999;48.780;9.146;2022-10-31T04:35:05;3.78;;;2.33;;
7511;SDS011;9999;48.780;9.146;2022-10-31T04:37:33;2.83;;;1.85;;
7511;SDS011;9999;48.780;9.146;2022-10-31T04:40:02;7.13;;;2.13;;
7511;SDS011;9999;48.780;9.146;2022-10-31T04:42:41;3.63;;;2.40;;
7511;SDS011;9999;48.780;9.146;2022-10-31T04:45:09;3.97;;;2.53;;
7511;SDS011;9999;48.780;9.146;2022-10-31T04:47:37;5.33;;;2.53;;
7511;SDS011;9999;48.780;9.146;2022-10-31T04:50:05;9.20;;;2.10;;
7511;SDS011;9999;48.780;9.146;2022-10-31T04:52:39;3.47;;;1.83;;
7511;SDS011;9999;48.780;9.146;2022-10-31T04:55:08;5.40;;;2.53;;
7511;SDS011;9999;48.780;9.146;2022-10-31T04:57:54;6.47;;;2.42;;
7511;SDS011;9999;48.780;9.146;2022-10-31T05:00:23;8.40;;;2.17;;
7511;SDS011;9999;48.780;9.146;2022-10-31T05:02:51;7.77;;;2.50;;
7511;SDS011;9999;48.780;9.146;2022-10-31T05:05:19;3.13;;;2.63;;
7511;SDS011;9999;48.780;9.146;2022-10-31T05:07:49;2.13;;;1.93;;
7511;SDS011;9999;48.780;9.146;2022-10-31T05:10:19;6.57;;;2.90;;
7511;SDS011;9999;48.780;9.146;2022-10-31T05:12:49;2.20;;;1.97;;
7511;SDS011;9999;48.780;9.146;2022-10-31T05:15:37;6.27;;;2.50;;
7511;SDS011;9999;48.780;9.146;2022-10-31T05:18:22;2.70;;;1.70;;
7511;SDS011;9999;48.780;9.146;2022-10-31T05:21:08;7.13;;;2.43;;
7511;SDS011;9999;48.780;9.146;2022-10-31T05:23:43;4.97;;;2.47;;
7511;SDS011;9999;48.780;9.146;2022-10-31T05:26:10;7.65;;;2.42;;
7511;SDS011;9999;48.780;9.146;2022-10-31T05:28:36;4.35;;;2.20;;
7511;SDS011;9999;48.780;9.146;2022-10-31T05:31:04;6.13;;;1.70;;
7511;SDS011;9999;48.780;9.146;2022-10-31T05:33:31;3.40;;;2.17;;
7511;SDS011;9999;48.780;9.146;2022-10-31T05:36:30;7.97;;;2.67;;
7511;SDS011;9999;48.780;9.146;2022-10-31T05:39:00;2.23;;;2.03;;
7511;SDS011;9999;48.780;9.146;2022-10-31T05:41:33;2.67;;;2.13;;
7511;SDS011;9999;48.780;9.146;2022-10-31T05:44:04;4.33;;;2.80;;
7511;SDS011;9999;48.780;9.146;2022-10-31T05:46:39;4.87;;;3.03;;
7511;SDS011;9999;48.780;9.146;2022-10-31T05:49:15;4.30;;;2.53;;
7511;SDS011;9999;48.780;9.146;2022-10-31T05:52:20;3.03;;;2.50;;
7511;SDS011;9999;48.780;9.146;2022-10-31T05:54:55;5.07;;;2.57;;
7511;SDS011;9999;48.780;9.146;2022-10-31T05:57:22;2.30;;;2.10;;
7511;SDS011;9999;48.780;9.146;2022-10-31T05:59:51;4.53;;;1.98;;
7511;SDS011;9999;48.780;9.146;2022-10-31T06:02:20;2.88;;;2.28;;
7511;SDS011;9999;48.780;9.146;2022-10-31T06:05:13;3.17;;;2.30;;
7511;SDS011;9999;48.780;9.146;2022-10-31T06:07:41;9.02;;;2.00;;
7511;SDS011;9999;48.780;9.146;2022-10-31T06:10:09;5.22;;;1.88;;
7511;SDS011;9999;48.780;9.146;2022-10-31T06:12:37;5.00;;;1.90;;
7511;SDS011;9999;48.780;9.146;2022-10-31T06:15:14;1.60;;;1.40;;
7511;SDS011;9999;48.780;9.146;2022-10-31T06:17:42;4.90;;;2.35;;
7511;SDS011;9999;48.780;9.146;2022-10-31T06:20:35;4.03;;;2.17;;
7511;SDS011;9999;48.780;9.146;2022-10-31T06:23:03;4.55;;;2.55;;
7511;SDS011;9999;48.780;9.146;2022-10-31T06:25:34;2.63;;;1.70;;
7511;SDS011;9999;48.780;9.146;2022-10-31T06:28:03;5.90;;;1.80;;
7511;SDS011;9999;48.780;9.146;2022-10-31T06:30:45;2.47;;;2.13;;
7511;SDS011;9999;48.780;9.146;2022-10-31T06:33:12;4.53;;;2.00;;
7511;SDS011;9999;48.780;9.146;2022-10-31T06:35:46;6.27;;;1.57;;
7511;SDS011;9999;48.780;9.146;2022-10-31T06:38:15;2.23;;;2.03;;
7511;SDS011;9999;48.780;9.146;2022-10-31T06:40:43;1.97;;;1.80;;
7511;SDS011;9999;48.780;9.146;2022-10-31T06:43:21;2.33;;;2.00;;
7511;SDS011;9999;48.780;9.146;2022-10-31T06:45:54;1.90;;;1.67;;
7511;SDS011;9999;48.780;9.146;2022-10-31T06:48:37;4.83;;;2.70;;
7511;SDS011;9999;48.780;9.146;2022-10-31T06:51:14;4.25;;;2.38;;
7511;SDS011;9999;48.780;9.146;2022-10-31T06:53:41;2.20;;;1.93;;
7511;SDS011;9999;48.780;9.146;2022-10-31T06:56:11;4.25;;;2.53;;
7511;SDS011;9999;48.780;9.146;2022-10-31T06:58:44;6.30;;;2.70;;
7511;SDS011;9999;48.780;9.146;2022-10-31T07:01:12;5.35;;;2.38;;
7511;SDS011;9999;48.780;9.146;2022-10-31T07:03:38;5.63;;;3.25;;
7511;SDS011;9999;48.780;9.146;2022-10-31T07:06:06;4.00;;;2.53;;
7511;SDS011;9999;48.780;9.146;2022-10-31T07:08:33;4.43;;;2.53;;
7511;SDS011;9999;48.780;9.146;2022-10-31T07:11:00;3.10;;;2.40;;
7511;SDS011;9999;48.780;9.146;2022-10-31T07:13:29;4.60;;;2.25;;
7511;SDS011;9999;48.780;9.146;2022-10-31T07:16:06;2.95;;;1.90;;
7511;SDS011;9999;48.780;9.146;2022-10-31T07:18:35;3.90;;;2.35;;
7511;SDS011;9999;48.780;9.146;2022-10-31T07:21:02;5.72;;;2.85;;
7511;SDS011;9999;48.780;9.146;2022-10-31T07:23:31;4.55;;;2.63;;
7511;SDS011;9999;48.780;9.146;2022-10-31T07:26:16;3.30;;;2.78;;
7511;SDS011;9999;48.780;9.146;2022-10-31T07:28:47;2.92;;;2.70;;
7511;SDS011;9999;48.780;9.146;2022-10-31T07:31:16;3.33;;;2.70;;
7511;SDS011;9999;48.780;9.146;2022-10-31T07:33:43;3.65;;;2.42;;
7511;SDS011;9999;48.780;9.146;2022-10-31T07:36:25;7.85;;;2.85;;
7511;SDS011;9999;48.780;9.146;2022-10-31T07:38:55;3.85;;;2.60;;
7511;SDS011;9999;48.780;9.146;2022-10-31T07:41:23;3.90;;;2.20;;
7511;SDS011;9999;48.780;9.146;2022-10-31T07:43:51;3.47;;;2.92;;
7511;SDS011;9999;48.780;9.146;2022-10-31T07:46:18;4.28;;;2.80;;
7511;SDS011;9999;48.780;9.146;2022-10-31T07:49:14;5.88;;;2.45;;
7511;SDS011;9999;48.780;9.146;2022-10-31T07:52:00;8.52;;;3.58;;
7511;SDS011;9999;48.780;9.146;2022-10-31T07:54:50;4.28;;;2.90;;
7511;SDS011;9999;48.780;9.146;2022-10-31T07:57:21;4.60;;;3.00;;
7511;SDS011;9999;48.780;9.146;2022-10-31T07:59:50;5.03;;;3.95;;
7511;SDS011;9999;48.780;9.146;2022-10-31T08:02:17;6.63;;;2.58;;
7511;SDS011;9999;48.780;9.146;2022-10-31T08:04:47;3.75;;;2.47;;
7511;SDS011;9999;48.780;9.146;2022-10-31T08:07:52;4.90;;;2.70;;
7511;SDS011;9999;48.780;9.146;2022-10-31T08:10:21;3.28;;;2.38;;
7511;SDS011;9999;48.780;9.146;2022-10-31T08:12:54;9.02;;;2.40;;
7511;SDS011;9999;48.780;9.146;2022-10-31T08:15:23;5.22;;;3.22;;
7511;SDS011;9999;48.780;9.146;2022-10-31T08:17:50;6.57;;;3.58;;
7511;SDS011;9999;48.780;9.146;2022-10-31T08:20:17;6.13;;;3.28;;
7511;SDS011;9999;48.780;9.146;2022-10-31T08:22:52;6.53;;;2.90;;
7511;SDS011;9999;48.780;9.146;2022-10-31T08:25:20;10.52;;;3.17;;
7511;SDS011;9999;48.780;9.146;2022-10-31T08:27:50;7.30;;;3.25;;
7511;SDS011;9999;48.780;9.146;2022-10-31T08:30:17;7.13;;;2.92;;
7511;SDS011;9999;48.780;9.146;2022-10-31T08:33:01;7.82;;;2.88;;
7511;SDS011;9999;48.780;9.146;2022-10-31T08:35:48;14.70;;;3.80;;
7511;SDS011;9999;48.780;9.146;2022-10-31T08:38:38;5.40;;;3.13;;
7511;SDS011;9999;48.780;9.146;2022-10-31T08:41:07;6.95;;;3.67;;
7511;SDS011;9999;48.780;9.146;2022-10-31T08:43:35;4.75;;;2.80;;
7511;SDS011;9999;48.780;9.146;2022-10-31T08:46:02;8.55;;;3.28;;
7511;SDS011;9999;48.780;9.146;2022-10-31T08:48:30;6.63;;;3.50;;
7511;SDS011;9999;48.780;9.146;2022-10-31T08:50:59;8.43;;;3.17;;
7511;SDS011;9999;48.780;9.146;2022-10-31T08:53:27;4.50;;;3.08;;
7511;SDS011;9999;48.780;9.146;2022-10-31T08:56:21;7.90;;;3.53;;
7511;SDS011;9999;48.780;9.146;2022-10-31T08:58:48;4.55;;;3.08;;
7511;SDS011;9999;48.780;9.146;2022-10-31T09:01:18;3.70;;;2.90;;
7511;SDS011;9999;48.780;9.146;2022-10-31T09:03:46;8.95;;;3.55;;
7511;SDS011;9999;48.780;9.146;2022-10-31T09:06:13;4.18;;;3.30;;
7511;SDS011;9999;48.780;9.146;2022-10-31T09:08:40;7.13;;;3.08;;
7511;SDS011;9999;48.780;9.146;2022-10-31T09:11:07;4.57;;;2.90;;
7511;SDS011;9999;48.780;9.146;2022-10-31T09:13:52;6.70;;;4.45;;
7511;SDS011;9999;48.780;9.146;2022-10-31T09:16:38;7.85;;;3.47;;
7511;SDS011;9999;48.780;9.146;2022-10-31T09:19:10;13.93;;;3.28;;
7511;SDS011;9999;48.780;9.146;2022-10-31T09:21:37;5.18;;;2.88;;
7511;SDS011;9999;48.780;9.146;2022-10-31T09:24:04;4.32;;;3.60;;
7511;SDS011;9999;48.780;9.146;2022-10-31T09:26:32;4.65;;;3.15;;
7511;SDS011;9999;48.780;9.146;2022-10-31T09:29:22;7.75;;;3.42;;
7511;SDS011;9999;48.780;9.146;2022-10-31T09:31:55;10.07;;;3.53;;
7511;SDS011;9999;48.780;9.146;2022-10-31T09:34:31;5.25;;;2.70;;
7511;SDS011;9999;48.780;9.146;2022-10-31T09:37:07;4.05;;;2.80;;
7511;SDS011;9999;48.780;9.146;2022-10-31T09:39:34;6.88;;;3.63;;
7511;SDS011;9999;48.780;9.146;2022-10-31T09:45:11;6.03;;;4.03;;
7511;SDS011;9999;48.780;9.146;2022-10-31T09:47:49;4.30;;;3.13;;
7511;SDS011;9999;48.780;9.146;2022-10-31T09:50:34;5.53;;;3.75;;
7511;SDS011;9999;48.780;9.146;2022-10-31T09:53:25;5.43;;;3.25;;
7511;SDS011;9999;48.780;9.146;2022-10-31T09:55:58;7.13;;;3.35;;
7511;SDS011;9999;48.780;9.146;2022-10-31T09:58:27;6.20;;;3.65;;
7511;SDS011;9999;48.780;9.146;2022-10-31T10:00:56;5.47;;;2.97;;
7511;SDS011;9999;48.780;9.146;2022-10-31T10:03:28;6.15;;;3.22;;
7511;SDS011;9999;48.780;9.146;2022-10-31T10:06:14;9.30;;;3.13;;
7511;SDS011;9999;48.780;9.146;2022-10-31T10:09:04;3.97;;;3.42;;
7511;SDS011;9999;48.780;9.146;2022-10-31T10:12:00;9.95;;;3.95;;
7511;SDS011;9999;48.780;9.146;2022-10-31T10:14:39;5.93;;;3.30;;
7511;SDS011;9999;48.780;9.146;2022-10-31T10:17:18;2.97;;;2.72;;
7511;SDS011;9999;48.780;9.146;2022-10-31T10:19:57;5.85;;;4.05;;
7511;SDS011;9999;48.780;9.146;2022-10-31T10:22:50;10.85;;;3.65;;
7511;SDS011;9999;48.780;9.146;2022-10-31T10:25:22;5.80;;;3.22;;
7511;SDS011;9999;48.780;9.146;2022-10-31T10:27:55;6.00;;;4.05;;
7511;SDS011;9999;48.780;9.146;2022-10-31T10:30:30;6.03;;;3.25;;
7511;SDS011;9999;48.780;9.146;2022-10-31T10:33:03;6.63;;;3.40;;
7511;SDS011;9999;48.780;9.146;2022-10-31T10:35:34;8.35;;;3.22;;
7511;SDS011;9999;48.780;9.146;2022-10-31T10:38:09;8.50;;;3.78;;
7511;SDS011;9999;48.780;9.146;2022-10-31T10:40:42;8.05;;;3.35;;
7511;SDS011;9999;48.780;9.146;2022-10-31T10:43:18;6.43;;;3.13;;
7511;SDS011;9999;48.780;9.146;2022-10-31T10:45:50;3.65;;;3.35;;
7511;SDS011;9999;48.780;9.146;2022-10-31T10:48:51;4.18;;;3.75;;
7511;SDS011;9999;48.780;9.146;2022-10-31T10:51:27;18.52;;;3.45;;
7511;SDS011;9999;48.780;9.146;2022-10-31T10:54:08;5.55;;;3.00;;
7511;SDS011;9999;48.780;9.146;2022-10-31T10:56:49;4.35;;;2.85;;
7511;SDS011;9999;48.780;9.146;2022-10-31T10:59:23;6.68;;;3.47;;
7511;SDS011;9999;48.780;9.146;2022-10-31T11:01:51;8.90;;;3.72;;
7511;SDS011;9999;48.780;9.146;2022-10-31T11:04:24;8.80;;;3.38;;
7511;SDS011;9999;48.780;9.146;2022-10-31T11:06:56;5.40;;;3.05;;
7511;SDS011;9999;48.780;9.146;2022-10-31T11:09:25;10.45;;;3.65;;
7511;SDS011;9999;48.780;9.146;2022-10-31T11:11:52;3.20;;;2.92;;
7511;SDS011;9999;48.780;9.146;2022-10-31T11:14:20;8.13;;;2.90;;
7511;SDS011;9999;48.780;9.146;2022-10-31T11:16:49;6.18;;;3.22;;
7511;SDS011;9999;48.780;9.146;2022-10-31T11:19:18;10.93;;;3.33;;
7511;SDS011;9999;48.780;9.146;2022-10-31T11:21:47;4.47;;;2.95;;
7511;SDS011;9999;48.780;9.146;2022-10-31T11:24:15;3.47;;;2.97;;
7511;SDS011;9999;48.780;9.146;2022-10-31T11:26:44;4.28;;;3.33;;
7511;SDS011;9999;48.780;9.146;2022-10-31T11:29:13;5.22;;;2.97;;
7511;SDS011;9999;48.780;9.146;2022-10-31T11:31:42;3.15;;;2.85;;
7511;SDS011;9999;48.780;9.146;2022-10-31T11:34:14;5.03;;;3.63;;
7511;SDS011;9999;48.780;9.146;2022-10-31T11:36:46;9.25;;;3.15;;
7511;SDS011;9999;48.780;9.146;2022-10-31T11:39:15;10.23;;;3.25;;
7511;SDS011;9999;48.780;9.146;2022-10-31T11:41:46;4.75;;;2.70;;
7511;SDS011;9999;48.780;9.146;2022-10-31T11:44:15;4.10;;;2.63;;
7511;SDS011;9999;48.780;9.146;2022-10-31T11:46:44;4.85;;;3.53;;
7511;SDS011;9999;48.780;9.146;2022-10-31T11:49:14;5.88;;;3.13;;
7511;SDS011;9999;48.780;9.146;2022-10-31T11:51:46;3.33;;;2.70;;
7511;SDS011;9999;48.780;9.146;2022-10-31T11:54:18;6.63;;;3.15;;
7511;SDS011;9999;48.780;9.146;2022-10-31T11:56:49;4.85;;;2.67;;
7511;SDS011;9999;48.780;9.146;2022-10-31T11:59:22;4.35;;;2.58;;
7511;SDS011;9999;48.780;9.146;2022-10-31T12:01:52;5.43;;;2.95;;
7511;SDS011;9999;48.780;9.146;2022-10-31T12:04:26;7.57;;;2.58;;
7511;SDS011;9999;48.780;9.146;2022-10-31T12:07:01;4.18;;;2.83;;
7511;SDS011;9999;48.780;9.146;2022-10-31T12:09:28;3.25;;;2.25;;
7511;SDS011;9999;48.780;9.146;2022-10-31T12:12:02;3.65;;;2.90;;
7511;SDS011;9999;48.780;9.146;2022-10-31T12:14:40;5.35;;;3.30;;
7511;SDS011;9999;48.780;9.146;2022-10-31T12:17:16;15.52;;;3.13;;
7511;SDS011;9999;48.780;9.146;2022-10-31T12:19:51;4.85;;;2.47;;
7511;SDS011;9999;48.780;9.146;2022-10-31T12:22:28;5.18;;;2.58;;
7511;SDS011;9999;48.780;9.146;2022-10-31T12:25:05;7.63;;;3.15;;
7511;SDS011;9999;48.780;9.146;2022-10-31T12:27:55;8.35;;;2.85;;
7511;SDS011;9999;48.780;9.146;2022-10-31T12:30:37;4.57;;;2.88;;
7511;SDS011;9999;48.780;9.146;2022-10-31T12:33:21;6.03;;;3.15;;
7511;SDS011;9999;48.780;9.146;2022-10-31T12:36:21;7.85;;;2.85;;
7511;SDS011;9999;48.780;9.146;2022-10-31T12:39:06;5.00;;;2.60;;
7511;SDS011;9999;48.780;9.146;2022-10-31T12:41:47;3.83;;;2.80;;
7511;SDS011;9999;48.780;9.146;2022-10-31T12:44:30;7.38;;;3.03;;
7511;SDS011;9999;48.780;9.146;2022-10-31T12:47:24;2.92;;;2.60;;
7511;SDS011;9999;48.780;9.146;2022-10-31T12:50:21;4.95;;;2.88;;
7511;SDS011;9999;48.780;9.146;2022-10-31T12:52:56;3.53;;;2.67;;
7511;SDS011;9999;48.780;9.146;2022-10-31T12:55:38;4.60;;;3.28;;
7511;SDS011;9999;48.780;9.146;2022-10-31T12:58:14;4.22;;;2.22;;
7511;SDS011;9999;48.780;9.146;2022-10-31T13:00:51;10.65;;;3.83;;
7511;SDS011;9999;48.780;9.146;2022-10-31T13:03:25;4.43;;;3.03;;
7511;SDS011;9999;48.780;9.146;2022-10-31T13:05:59;5.45;;;3.25;;
7511;SDS011;9999;48.780;9.146;2022-10-31T13:08:33;7.53;;;3.58;;
7511;SDS011;9999;48.780;9.146;2022-10-31T13:11:06;6.80;;;3.47;;
7511;SDS011;9999;48.780;9.146;2022-10-31T13:13:39;8.57;;;3.70;;
7511;SDS011;9999;48.780;9.146;2022-10-31T13:16:11;10.13;;;3.60;;
7511;SDS011;9999;48.780;9.146;2022-10-31T13:18:42;5.45;;;3.28;;
7511;SDS011;9999;48.780;9.146;2022-10-31T13:21:13;5.65;;;3.50;;
7511;SDS011;9999;48.780;9.146;2022-10-31T13:23:44;8.57;;;4.47;;
7511;SDS011;9999;48.780;9.146;2022-10-31T13:26:15;5.10;;;2.92;;
7511;SDS011;9999;48.780;9.146;2022-10-31T13:28:48;4.35;;;3.55;;
7511;SDS011;9999;48.780;9.146;2022-10-31T13:31:22;4.25;;;3.55;;
7511;SDS011;9999;48.780;9.146;2022-10-31T13:33:50;6.30;;;4.25;;
7511;SDS011;9999;48.780;9.146;2022-10-31T13:36:23;9.93;;;2.88;;
7511;SDS011;9999;48.780;9.146;2022-10-31T13:38:56;5.40;;;3.58;;
7511;SDS011;9999;48.780;9.146;2022-10-31T13:41:31;7.72;;;3.58;;
7511;SDS011;9999;48.780;9.146;2022-10-31T13:44:09;4.72;;;3.45;;
7511;SDS011;9999;48.780;9.146;2022-10-31T13:46:42;4.80;;;3.53;;
7511;SDS011;9999;48.780;9.146;2022-10-31T13:49:21;6.53;;;3.72;;
7511;SDS011;9999;48.780;9.146;2022-10-31T13:51:51;4.57;;;3.17;;
7511;SDS011;9999;48.780;9.146;2022-10-31T13:54:22;6.30;;;3.20;;
7511;SDS011;9999;48.780;9.146;2022-10-31T13:56:57;7.57;;;3.42;;
7511;SDS011;9999;48.780;9.146;2022-10-31T13:59:25;6.85;;;3.60;;
7511;SDS011;9999;48.780;9.146;2022-10-31T14:01:55;6.00;;;2.92;;
7511;SDS011;9999;48.780;9.146;2022-10-31T14:04:25;7.18;;;3.63;;
7511;SDS011;9999;48.780;9.146;2022-10-31T14:06:57;4.28;;;3.15;;
7511;SDS011;9999;48.780;9.146;2022-10-31T14:09:31;4.32;;;3.15;;
7511;SDS011;9999;48.780;9.146;2022-10-31T14:12:02;5.30;;;3.83;;
7511;SDS011;9999;48.780;9.146;2022-10-31T14:14:43;9.10;;;3.40;;
7511;SDS011;9999;48.780;9.146;2022-10-31T14:17:22;7.60;;;3.45;;
7511;SDS011;9999;48.780;9.146;2022-10-31T14:20:02;5.35;;;3.60;;
7511;SDS011;9999;48.780;9.146;2022-10-31T14:22:44;30.38;;;5.75;;
7511;SDS011;9999;48.780;9.146;2022-10-31T14:27:57;9.20;;;4.22;;
7511;SDS011;9999;48.780;9.146;2022-10-31T14:30:26;6.72;;;3.38;;
7511;SDS011;9999;48.780;9.146;2022-10-31T14:32:57;6.00;;;3.03;;
7511;SDS011;9999;48.780;9.146;2022-10-31T14:35:45;6.20;;;3.65;;
7511;SDS011;9999;48.780;9.146;2022-10-31T14:38:29;4.30;;;2.95;;
7511;SDS011;9999;48.780;9.146;2022-10-31T14:41:24;10.88;;;3.22;;
7511;SDS011;9999;48.780;9.146;2022-10-31T14:47:08;8.52;;;3.28;;
7511;SDS011;9999;48.780;9.146;2022-10-31T14:49:49;12.63;;;3.92;;
7511;SDS011;9999;48.780;9.146;2022-10-31T14:52:28;6.85;;;3.00;;
7511;SDS011;9999;48.780;9.146;2022-10-31T14:54:56;3.78;;;2.97;;
7511;SDS011;9999;48.780;9.146;2022-10-31T14:57:25;6.75;;;3.15;;
7511;SDS011;9999;48.780;9.146;2022-10-31T14:59:55;6.25;;;3.63;;
7511;SDS011;9999;48.780;9.146;2022-10-31T15:02:30;3.78;;;2.88;;
7511;SDS011;9999;48.780;9.146;2022-10-31T15:05:05;5.75;;;3.60;;
7511;SDS011;9999;48.780;9.146;2022-10-31T15:07:33;6.35;;;3.33;;
7511;SDS011;9999;48.780;9.146;2022-10-31T15:10:00;5.75;;;3.92;;
7511;SDS011;9999;48.780;9.146;2022-10-31T15:12:29;5.65;;;3.88;;
7511;SDS011;9999;48.780;9.146;2022-10-31T15:15:10;6.28;;;3.35;;
7511;SDS011;9999;48.780;9.146;2022-10-31T15:17:41;11.57;;;3.50;;
7511;SDS011;9999;48.780;9.146;2022-10-31T15:20:11;4.90;;;2.88;;
7511;SDS011;9999;48.780;9.146;2022-10-31T15:22:43;3.83;;;2.95;;
7511;SDS011;9999;48.780;9.146;2022-10-31T15:25:12;6.75;;;3.15;;
7511;SDS011;9999;48.780;9.146;2022-10-31T15:27:44;4.80;;;3.03;;
7511;SDS011;9999;48.780;9.146;2022-10-31T15:30:18;6.40;;;3.00;;
7511;SDS011;9999;48.780;9.146;2022-10-31T15:32:46;6.78;;;4.00;;
7511;SDS011;9999;48.780;9.146;2022-10-31T15:35:22;7.30;;;4.35;;
7511;SDS011;9999;48.780;9.146;2022-10-31T15:37:51;9.52;;;3.58;;
7511;SDS011;9999;48.780;9.146;2022-10-31T15:40:19;10.32;;;3.10;;
7511;SDS011;9999;48.780;9.146;2022-10-31T15:42:49;6.18;;;3.05;;
7511;SDS011;9999;48.780;9.146;2022-10-31T15:45:21;9.98;;;4.15;;
7511;SDS011;9999;48.780;9.146;2022-10-31T15:47:53;4.38;;;2.78;;
7511;SDS011;9999;48.780;9.146;2022-10-31T15:50:25;7.15;;;2.78;;
7511;SDS011;9999;48.780;9.146;2022-10-31T15:52:56;2.15;;;2.00;;
7511;SDS011;9999;48.780;9.146;2022-10-31T15:55:25;5.53;;;2.85;;
7511;SDS011;9999;48.780;9.146;2022-10-31T15:57:54;6.47;;;2.80;;
7511;SDS011;9999;48.780;9.146;2022-10-31T16:00:24;4.38;;;2.65;;
7511;SDS011;9999;48.780;9.146;2022-10-31T16:03:03;4.85;;;2.28;;